Skip to main content

NOAA/GLERL Met Station at Muskegon, MI

Previous 3 Hours (2 minute increments)
See also Previous 5 Days (top of hour)
Jump down to Data
Switch to [English][Metric]
Zoom: Click and drag, Pan: shift-click and drag, Unzoom: double-click, Unzoom All






See also 1-day windrose plot


NOAA/GLERL Met Station at Muskegon, MI

Previous 3 Hours (2 minute increments)
See also Previous 5 Days (top of hour only)
Jump up to Graphs
Switch to [English][Metric]
                  Wind  Wind  Wind   Air   Dew   Rel     Sta   PAR
                   Spd   Gst   Dir  Temp    Pt   Hum    Pres uE/m2/
YYYY-MM-DD   EST   m/s   m/s   deg     C     C     %      mb   sec
2020-02-27 19:20  10.9  12.1   349  -5.0 -11.0  63.2  994.80     2
2020-02-27 19:18  10.4  12.9   344  -4.9 -10.8  63.7  994.80     2
2020-02-27 19:16  11.4  13.7   339  -4.7 -10.3  65.0  994.80     2
2020-02-27 19:14  10.1  11.3   325  -4.8 -10.4  65.0  994.70     2
2020-02-27 19:12  11.2  13.0   330  -4.7 -10.6  63.5  994.80     2
2020-02-27 19:10  12.3  13.7   330  -4.7 -10.8  62.7  994.70     2
2020-02-27 19:08  12.2  13.3   335  -4.7 -10.5  63.8  994.70     2
2020-02-27 19:06   9.9  11.3   340  -4.8 -10.9  62.6  994.70     2
2020-02-27 19:04  11.2  12.7   338  -4.8 -11.2  61.2  994.70     2
2020-02-27 19:02  11.4  13.0   336  -4.6 -10.5  63.7  994.70     2
2020-02-27 19:00  11.8  12.6   332  -4.7 -10.3  64.8  994.70     2
2020-02-27 18:58  10.9  13.6   334  -4.8 -10.8  63.0  994.70     2
2020-02-27 18:56  10.9  13.8   338  -4.6 -10.3  64.4  994.70     2
2020-02-27 18:54  10.8  13.8   329  -4.7 -10.2  65.7  994.70     2
2020-02-27 18:52  11.4  12.9   329  -4.8 -10.4  65.2  994.70     2
2020-02-27 18:50  10.3  11.9   334  -5.0 -10.8  63.9  994.70     2
2020-02-27 18:48   9.3  11.4   345  -5.1 -11.1  62.9  994.70     2
2020-02-27 18:46   9.3  11.7   348  -5.0 -10.8  63.8  994.70     2
2020-02-27 18:44  10.4  11.2   340  -5.2 -11.2  62.7  994.70     2
2020-02-27 18:42   9.9  10.8   343  -5.1 -11.0  63.5  994.70     2
2020-02-27 18:40  11.5  12.7   340  -4.9 -11.0  62.6  994.80     3
2020-02-27 18:38  11.7  14.2   339  -4.8 -10.4  64.8  994.70     3
2020-02-27 18:36  10.1  11.6   334  -5.0 -10.8  63.8  994.70     3
2020-02-27 18:34  11.8  12.8   343  -4.9 -10.8  63.4  994.70     4
2020-02-27 18:32  11.4  13.7   340  -4.8 -10.4  65.2  994.70     5
2020-02-27 18:30  10.1  13.7   334  -4.8 -10.3  65.7  994.60     6
2020-02-27 18:28  10.6  12.0   333  -4.9 -10.7  64.2  994.70     6
2020-02-27 18:26  11.1  12.8   334  -4.9 -10.6  64.4  994.70     6
2020-02-27 18:24  11.2  12.5   333  -4.9 -10.8  63.7  994.70     7
2020-02-27 18:22  11.9  12.7   341  -4.7 -10.6  63.6  994.70     8
2020-02-27 18:20  12.5  14.0   331  -4.7 -10.2  65.6  994.60     8
2020-02-27 18:18   9.1  11.2   336  -5.0 -11.0  63.1  994.60     9
2020-02-27 18:16  10.5  12.4   347  -5.0 -10.9  63.5  994.50    11
2020-02-27 18:14   9.5  11.9   340  -5.0 -11.0  63.1  994.50    13
2020-02-27 18:12  11.8  14.0   337  -4.8 -10.4  64.8  994.60    14
2020-02-27 18:10  11.5  12.4   332  -4.7 -10.0  66.5  994.50    16
2020-02-27 18:08  10.9  12.8   332  -4.7 -10.1  66.0  994.50    19
2020-02-27 18:06   9.1  10.3   330  -4.7  -9.9  67.1  994.50    21
2020-02-27 18:04  10.1  11.7   331  -4.8 -10.0  67.0  994.50    20
2020-02-27 18:02  11.4  12.6   337  -4.9 -10.3  65.8  994.50    22
2020-02-27 18:00  11.6  12.7   336  -4.9  -9.9  68.1  994.40    24
2020-02-27 17:58  10.5  12.4   334  -5.1 -10.1  68.2  994.30    30
2020-02-27 17:56  11.1  12.5   339  -5.1 -10.2  67.7  994.40    33
2020-02-27 17:54  11.9  13.7   346  -5.0 -10.5  65.4  994.40    33
2020-02-27 17:52  11.5  13.3   342  -4.9  -9.9  68.2  994.50    30
2020-02-27 17:50   9.6  12.8   325  -4.9 -10.0  67.8  994.40    28
2020-02-27 17:48  10.8  12.2   320  -4.9  -9.8  68.5  994.40    32
2020-02-27 17:46   9.4  10.0   330  -5.1  -9.9  69.2  994.40    37
2020-02-27 17:44   9.5  10.9   335  -5.2  -9.9  69.9  994.40    32
2020-02-27 17:42  10.2  12.0   338  -5.0  -9.6  70.2  994.50    31
2020-02-27 17:40   9.7  12.1   340  -5.0  -9.7  69.8  994.40    39
2020-02-27 17:38  11.1  12.3   333  -5.0  -9.8  69.1  994.50    47
2020-02-27 17:36  10.4  11.7   333  -4.9 -10.0  67.5  994.40    44
2020-02-27 17:34  10.5  11.6   334  -4.8  -9.7  68.5  994.40    48
2020-02-27 17:32  11.0  11.8   331  -4.9 -10.0  67.5  994.30    60
2020-02-27 17:30  10.4  12.0   336  -5.0 -10.6  64.9  994.30    63
2020-02-27 17:28  11.8  13.1   339  -4.9 -10.5  65.1  994.30    66
2020-02-27 17:26  10.9  12.5   335  -5.0 -11.2  62.2  994.30    73
2020-02-27 17:24  11.0  13.0   341  -5.0 -10.7  64.5  994.30    77
2020-02-27 17:22  10.3  12.5   339  -5.3 -11.2  63.5  994.30    70
2020-02-27 17:20  12.6  13.8   349  -5.0 -10.9  63.3  994.30    76
2020-02-27 17:18  12.3  14.6   341  -4.8 -10.5  64.4  994.30    83
2020-02-27 17:16  11.2  13.5   341  -4.8 -10.8  63.2  994.30    89
2020-02-27 17:14  12.5  14.0   336  -4.7 -10.7  62.8  994.30    96
2020-02-27 17:12  12.4  14.4   338  -4.8 -11.0  62.1  994.30    92
2020-02-27 17:10  10.8  12.8   339  -4.9 -11.2  61.6  994.30    88
2020-02-27 17:08  12.1  13.0   338  -4.9 -11.3  61.1  994.30    87
2020-02-27 17:06  10.1  14.0   339  -4.9 -11.1  61.8  994.20    91
2020-02-27 17:04  11.6  13.1   338  -5.0 -11.5  60.7  994.30    94
2020-02-27 17:02  11.6  14.0   338  -4.9 -11.3  60.9  994.30   107
2020-02-27 17:00  13.6  14.7   338  -4.9 -11.2  61.5  994.30   117
2020-02-27 16:58  12.6  14.9   338  -4.9 -11.3  60.9  994.30   113
2020-02-27 16:56   9.7  11.2   340  -4.8 -11.0  61.8  994.30   106
2020-02-27 16:54  10.3  12.6   335  -4.7 -10.8  62.6  994.30   107
2020-02-27 16:52  11.3  12.5   332  -4.9 -11.3  60.9  994.30   122
2020-02-27 16:50  12.0  13.5   337  -5.2 -11.9  59.5  994.30   139
2020-02-27 16:48  10.1  11.9   339  -5.3 -12.5  57.2  994.30   144
2020-02-27 16:46   8.7  10.7   349  -5.4 -13.0  55.5  994.20   142
2020-02-27 16:44  11.3  12.8   349  -5.3 -13.0  55.1  994.20   148
2020-02-27 16:42  12.0  14.0   349  -5.3 -12.8  55.7  994.20   169
2020-02-27 16:40  11.1  13.0   350  -5.2 -12.5  56.7  994.20   179
2020-02-27 16:38  10.8  14.3   343  -5.1 -12.0  58.6  994.20   183
2020-02-27 16:36  13.3  15.1   339  -5.1 -12.1  58.3  994.30   180
2020-02-27 16:34  12.3  13.9   343  -5.1 -12.0  58.7  994.20   172
2020-02-27 16:32  12.4  13.8   349  -4.9 -11.6  59.5  994.20   182
2020-02-27 16:30  12.3  14.6   335  -4.7 -10.9  61.9  994.20   201
2020-02-27 16:28  11.7  13.1   332  -5.0 -11.5  60.6  994.20   202
2020-02-27 16:26  11.3  13.7   341  -5.1 -12.1  58.3  994.20   200
2020-02-27 16:24  11.7  12.9   340  -4.8 -11.1  61.4  994.20   216
2020-02-27 16:22  12.4  14.5   336  -4.7 -10.9  61.9  994.20   236
2020-02-27 16:20  11.9  14.7   334  -4.7 -10.7  62.8  994.10   238